createdAt,value
2019-01-05T00:00:35.351Z,69.84
2019-01-05T00:03:28.543Z,69.49
2019-01-05T00:06:16.912Z,68.54
2019-01-05T00:09:05.172Z,70.58
2019-01-05T00:12:08.769Z,71.14
2019-01-05T00:15:04.731Z,71.20
2019-01-05T00:18:03.025Z,71.15
2019-01-05T00:20:44.082Z,72.05
2019-01-05T00:23:43.802Z,72.10
2019-01-05T00:26:35.134Z,69.14
2019-01-05T00:29:22.640Z,69.06
2019-01-05T00:32:45.817Z,71.04
2019-01-05T00:35:40.899Z,71.32
2019-01-05T00:38:29.833Z,72.86
2019-01-05T00:41:18.537Z,73.41
2019-01-05T00:43:59.458Z,73.49
2019-01-05T00:47:01.962Z,73.58
2019-01-05T00:49:51.031Z,73.86
2019-01-05T00:52:40.433Z,73.77
2019-01-05T00:55:27.866Z,71.94
2019-01-05T00:58:23.939Z,71.14
2019-01-05T01:01:06.620Z,73.29
2019-01-05T01:03:58.241Z,73.81
2019-01-05T01:06:44.205Z,72.95
2019-01-05T01:09:47.807Z,71.94
2019-01-05T01:12:34.553Z,70.00
2019-01-05T01:15:35.374Z,69.99
2019-01-05T01:18:17.111Z,68.62
2019-01-05T01:21:11.226Z,67.96
2019-01-05T01:24:03.298Z,67.73
2019-01-05T01:26:50.528Z,67.99
2019-01-05T01:29:35.197Z,68.02
2019-01-05T01:32:39.066Z,67.94
2019-01-05T01:35:26.024Z,67.19
2019-01-05T01:38:42.481Z,67.72
2019-01-05T01:42:26.411Z,68.03
2019-01-05T01:45:13.565Z,67.62
2019-01-05T01:48:07.899Z,67.47
2019-01-05T01:51:03.261Z,67.13
2019-01-05T01:53:55.043Z,68.31
2019-01-05T01:56:49.080Z,68.25
2019-01-05T01:59:59.587Z,67.64
2019-01-05T02:02:52.198Z,67.66
2019-01-05T02:05:42.331Z,67.29
2019-01-05T02:08:50.921Z,66.59
2019-01-05T02:11:35.627Z,66.82
2019-01-05T02:14:37.338Z,67.62
2019-01-05T02:17:51.680Z,66.76
2019-01-05T02:21:17.945Z,66.63
2019-01-05T02:24:52.269Z,67.08
2019-01-05T02:28:41.473Z,67.21
2019-01-05T02:32:20.394Z,67.48
2019-01-05T02:35:52.058Z,67.13
2019-01-05T02:39:05.173Z,67.05
2019-01-05T02:42:17.148Z,68.21
2019-01-05T02:45:23.869Z,69.71
2019-01-05T02:49:06.007Z,71.48
2019-01-05T02:52:40.445Z,72.64
2019-01-05T02:56:17.347Z,73.00
2019-01-05T03:00:12.695Z,73.80
2019-01-05T03:03:48.756Z,73.90
2019-01-05T03:07:15.441Z,74.81
2019-01-05T03:10:53.631Z,75.43
2019-01-05T03:14:00.361Z,75.27
2019-01-05T03:17:35.566Z,74.89
2019-01-05T03:21:02.050Z,75.44
2019-01-05T03:24:09.789Z,75.84
2019-01-05T03:27:44.698Z,75.71
2019-01-05T03:31:05.639Z,75.53
2019-01-05T03:34:29.573Z,75.77
2019-01-05T03:38:19.997Z,76.30
2019-01-05T03:41:46.910Z,76.32
2019-01-05T03:45:30.928Z,75.88
2019-01-05T03:49:02.865Z,75.70
2019-01-05T03:52:27.347Z,75.63
2019-01-05T03:56:05.516Z,75.77
2019-01-05T03:59:42.002Z,75.72
2019-01-05T04:02:54.981Z,75.87
2019-01-05T04:06:30.824Z,75.92
2019-01-05T04:10:27.700Z,74.98
2019-01-05T04:14:05.393Z,75.72
2019-01-05T04:17:22.711Z,75.51
2019-01-05T04:20:38.311Z,75.50
2019-01-05T04:24:02.219Z,75.75
2019-01-05T04:27:26.400Z,75.71
2019-01-05T04:31:07.357Z,75.50
2019-01-05T04:34:37.878Z,75.51
2019-01-05T04:38:10.228Z,75.70
2019-01-05T04:41:26.135Z,75.89
2019-01-05T04:44:56.918Z,75.12
2019-01-05T04:48:49.647Z,75.05
2019-01-05T04:52:45.987Z,75.08
2019-01-05T04:56:15.907Z,75.83
2019-01-05T04:59:47.373Z,76.34
2019-01-05T05:03:25.036Z,76.13
2019-01-05T05:07:05.950Z,75.97
2019-01-05T05:10:58.510Z,76.20
2019-01-05T05:14:34.456Z,76.20
2019-01-05T05:18:21.881Z,76.66
2019-01-05T05:21:51.655Z,75.35
2019-01-05T05:25:13.922Z,74.24
2019-01-05T05:28:35.144Z,73.94
2019-01-05T05:32:07.058Z,70.75
2019-01-05T05:35:46.629Z,71.01
2019-01-05T05:39:20.672Z,70.75
2019-01-05T05:42:41.526Z,71.07
2019-01-05T05:46:21.702Z,71.66
2019-01-05T05:49:25.652Z,73.70
2019-01-05T05:53:00.449Z,75.27
2019-01-05T05:56:42.509Z,75.82
2019-01-05T06:00:09.541Z,75.96
2019-01-05T06:03:56.304Z,76.45
2019-01-05T06:07:24.005Z,76.31
2019-01-05T06:11:04.863Z,75.86
2019-01-05T06:14:40.952Z,76.33
2019-01-05T06:18:05.567Z,76.55
2019-01-05T06:21:46.686Z,77.06
2019-01-05T06:25:28.753Z,76.86
2019-01-05T06:28:55.926Z,77.55
2019-01-05T06:32:31.590Z,77.63
2019-01-05T06:35:40.024Z,77.48
2019-01-05T06:39:15.710Z,77.72
2019-01-05T06:42:56.563Z,77.81
2019-01-05T06:46:23.142Z,77.67
2019-01-05T06:49:53.308Z,78.29
2019-01-05T06:53:20.419Z,78.34
2019-01-05T06:57:29.190Z,78.36
2019-01-05T07:01:16.959Z,78.29
2019-01-05T07:04:45.911Z,78.71
2019-01-05T07:08:31.268Z,78.62
2019-01-05T07:12:09.624Z,78.58
2019-01-05T07:15:43.768Z,78.37
2019-01-05T11:08:09.418Z,59.25
2019-01-05T11:11:47.921Z,59.05
2019-01-05T11:19:57.422Z,55.77
2019-01-05T11:26:55.336Z,57.49
2019-01-05T11:30:29.328Z,56.83
2019-01-05T11:34:27.777Z,56.32
2019-01-05T11:37:57.233Z,57.14
2019-01-05T11:41:35.391Z,56.47
2019-01-05T11:45:16.755Z,56.46
2019-01-05T11:48:56.066Z,57.05
2019-01-05T11:52:28.841Z,57.10
2019-01-05T11:55:57.595Z,57.91
2019-01-05T11:59:24.281Z,55.84
2019-01-05T12:03:03.035Z,56.17
2019-01-05T12:06:23.524Z,55.98
2019-01-05T12:09:58.727Z,55.22
2019-01-05T12:13:25.990Z,54.69
2019-01-05T12:16:57.353Z,54.48
2019-01-05T12:20:08.498Z,53.75
2019-01-05T12:23:32.720Z,54.50
2019-01-05T12:27:17.851Z,53.69
2019-01-05T12:30:56.172Z,52.64
2019-01-05T12:34:38.280Z,50.90
2019-01-05T12:38:25.370Z,51.98
2019-01-05T12:42:05.884Z,51.35
2019-01-05T12:45:28.875Z,51.42
2019-01-05T12:49:12.318Z,52.64
2019-01-05T12:52:49.450Z,52.80
2019-01-05T12:56:42.064Z,52.45
2019-01-05T13:00:40.486Z,51.33
2019-01-05T13:04:39.625Z,49.26
2019-01-05T13:08:11.453Z,49.49
2019-01-05T13:11:43.388Z,49.89
2019-01-05T13:14:56.548Z,50.17
2019-01-05T13:18:17.772Z,50.11
2019-01-05T13:21:39.548Z,50.09
2019-01-05T13:25:08.517Z,49.99
2019-01-05T13:28:40.482Z,50.09
2019-01-05T13:32:26.857Z,50.54
2019-01-05T13:36:05.402Z,50.05
2019-01-05T13:39:25.089Z,49.63
2019-01-05T13:42:49.434Z,49.14
2019-01-05T13:46:32.557Z,49.83
2019-01-05T13:50:03.148Z,50.45
2019-01-05T13:53:59.840Z,51.65
2019-01-05T13:57:04.672Z,51.32
2019-01-05T14:00:08.437Z,53.29
2019-01-05T14:02:55.410Z,52.86
2019-01-05T14:05:42.562Z,52.37
2019-01-05T14:08:33.646Z,52.25
2019-01-05T14:11:20.641Z,52.55
2019-01-05T14:14:21.087Z,53.72
2019-01-05T14:17:09.393Z,54.12
2019-01-05T14:19:56.606Z,53.79
2019-01-05T14:22:56.826Z,55.01
2019-01-05T14:25:43.988Z,56.68
2019-01-05T14:28:38.303Z,57.91
2019-01-05T14:31:35.805Z,58.90
2019-01-05T14:34:24.018Z,60.40
2019-01-05T14:37:11.169Z,60.77
2019-01-05T14:39:58.228Z,62.58
2019-01-05T14:42:45.374Z,63.94
2019-01-05T14:45:43.598Z,64.40
2019-01-05T14:48:43.944Z,64.70
2019-01-05T14:51:31.164Z,65.36
2019-01-05T14:54:34.838Z,66.11
2019-01-05T14:57:35.190Z,66.50
2019-01-05T15:00:24.175Z,67.23
2019-01-05T15:03:11.114Z,67.35
2019-01-05T15:06:01.331Z,67.51
2019-01-05T15:08:52.837Z,67.76
2019-01-05T15:11:47.142Z,68.46
2019-01-05T15:14:34.548Z,68.46
2019-01-05T15:17:41.302Z,69.25
2019-01-05T15:20:28.293Z,69.19
2019-01-05T15:23:16.608Z,69.45
2019-01-05T15:26:10.986Z,69.67
2019-01-05T15:28:59.240Z,70.24
2019-01-05T15:31:46.336Z,69.95
2019-01-05T15:34:33.282Z,69.87
2019-01-05T15:37:20.207Z,70.02
2019-01-05T15:40:07.606Z,70.17
2019-01-05T15:42:55.962Z,70.89
2019-01-05T15:45:42.354Z,71.30
2019-01-05T15:48:24.741Z,71.21
2019-01-05T15:51:25.173Z,71.58
2019-01-05T15:54:25.426Z,72.12
2019-01-05T15:57:12.534Z,72.42
2019-01-05T15:59:59.792Z,72.48
2019-01-05T16:02:51.402Z,72.48
2019-01-05T16:05:45.723Z,72.94
2019-01-05T16:08:32.712Z,73.28
2019-01-05T16:11:19.844Z,73.38
2019-01-05T16:14:06.822Z,73.85
2019-01-05T16:17:01.234Z,74.03
2019-01-05T16:19:48.377Z,73.76
2019-01-05T16:22:52.639Z,74.18
2019-01-05T16:25:43.885Z,74.08
2019-01-05T16:28:31.046Z,73.91
2019-01-05T16:31:19.349Z,74.03
2019-01-05T16:34:06.589Z,74.27
2019-01-05T16:36:53.838Z,74.33
2019-01-05T16:39:57.526Z,74.46
2019-01-05T16:42:48.314Z,74.52
2019-01-05T16:45:39.973Z,74.75
2019-01-05T16:48:27.323Z,74.63
2019-01-05T16:51:31.032Z,74.68
2019-01-05T16:54:22.180Z,74.73
2019-01-05T16:57:12.091Z,74.80
2019-01-05T17:00:00.243Z,74.76
2019-01-05T17:03:00.593Z,74.76
2019-01-05T17:05:52.184Z,74.50
2019-01-05T17:08:40.452Z,74.85
2019-01-05T17:11:40.841Z,74.82
2019-01-05T17:14:27.987Z,74.61
2019-01-05T17:17:16.274Z,74.72
2019-01-05T17:20:16.715Z,74.52
2019-01-05T17:22:59.779Z,74.34
2019-01-05T17:25:48.494Z,74.40
2019-01-05T17:28:38.293Z,74.27
2019-01-05T17:31:25.294Z,74.26
2019-01-05T17:34:12.522Z,74.50
2019-01-05T17:37:10.050Z,74.61
2019-01-05T17:39:56.982Z,74.50
2019-01-05T17:42:45.271Z,74.32
2019-01-05T17:45:45.758Z,74.10
2019-01-05T17:48:38.468Z,74.16
2019-01-05T17:51:35.865Z,73.47
2019-01-05T17:54:30.211Z,73.69
2019-01-05T17:57:17.457Z,73.68
2019-01-05T18:00:11.799Z,73.34
2019-01-05T18:03:06.186Z,73.32
2019-01-05T18:05:53.100Z,73.38
2019-01-05T18:08:41.006Z,73.17
2019-01-05T18:11:39.404Z,72.89
2019-01-05T18:14:24.435Z,72.60
2019-01-05T18:17:11.412Z,72.27
2019-01-05T18:19:58.437Z,71.77
2019-01-05T18:22:46.426Z,71.79
2019-01-05T18:25:37.527Z,71.58
2019-01-05T18:28:40.931Z,71.27
2019-01-05T18:31:28.050Z,71.14
2019-01-05T18:34:15.238Z,71.79
2019-01-05T18:37:14.301Z,71.21
2019-01-05T18:40:02.573Z,71.54
2019-01-05T18:42:50.935Z,71.56
2019-01-05T18:45:42.019Z,70.85
2019-01-05T18:48:28.985Z,71.00
2019-01-05T18:51:16.269Z,71.12
2019-01-05T18:54:19.890Z,71.05
2019-01-05T18:57:07.107Z,71.28
2019-01-05T19:00:01.526Z,71.30
2019-01-05T19:02:48.423Z,71.17
2019-01-05T19:05:36.983Z,71.25
2019-01-05T19:08:20.684Z,71.40
2019-01-05T19:11:20.848Z,70.78
2019-01-05T19:14:08.062Z,70.83
2019-01-05T19:17:02.309Z,70.90
2019-01-05T19:19:49.471Z,71.10
2019-01-05T19:22:36.438Z,70.95
2019-01-05T19:25:34.718Z,71.14
2019-01-05T19:28:21.683Z,70.83
2019-01-05T19:31:18.632Z,70.86
2019-01-05T19:34:20.211Z,71.22
2019-01-05T19:37:08.599Z,71.16
2019-01-05T19:40:02.934Z,70.96
2019-01-05T19:42:50.022Z,71.13
2019-01-05T19:45:56.714Z,70.75
2019-01-05T19:48:45.416Z,70.43
2019-01-05T19:51:36.195Z,70.50
2019-01-05T19:54:23.049Z,70.34
2019-01-05T19:57:07.697Z,70.11
2019-01-05T19:59:54.547Z,69.83
2019-01-05T20:02:48.919Z,69.51
2019-01-05T20:05:35.873Z,69.60
2019-01-05T20:08:21.804Z,69.83
2019-01-05T20:11:16.020Z,69.56
2019-01-05T20:14:04.717Z,69.35
2019-01-05T20:16:51.585Z,68.17
2019-01-05T20:19:58.368Z,69.63
2019-01-05T20:22:52.533Z,70.45
2019-01-05T20:25:40.823Z,70.70
2019-01-05T20:28:41.328Z,70.82
2019-01-05T20:31:38.734Z,71.23
2019-01-05T20:34:25.828Z,70.79
2019-01-05T20:37:29.340Z,70.60
2019-01-05T20:40:16.526Z,70.65
2019-01-05T20:43:10.656Z,70.68
2019-01-05T20:46:05.041Z,70.27
2019-01-05T20:48:58.765Z,70.46
2019-01-05T20:51:53.843Z,71.10
2019-01-05T20:54:42.171Z,71.14
2019-01-05T20:57:29.327Z,70.98
2019-01-05T21:00:16.465Z,71.22
2019-01-05T21:03:03.567Z,71.40
2019-01-05T21:05:50.574Z,70.93
2019-01-05T21:08:47.893Z,70.99
2019-01-05T21:11:36.182Z,71.08
2019-01-05T21:14:22.988Z,71.26
2019-01-05T21:17:09.883Z,71.25
2019-01-05T21:20:01.113Z,71.39
2019-01-05T21:22:49.415Z,71.51
2019-01-05T21:25:40.770Z,71.42
2019-01-05T21:28:24.217Z,71.35
2019-01-05T21:31:11.352Z,71.34
2019-01-05T21:34:02.493Z,70.89
2019-01-05T21:36:50.846Z,71.19
2019-01-05T21:39:51.260Z,71.15
2019-01-05T21:42:34.979Z,71.34
2019-01-05T21:45:29.895Z,71.47
2019-01-05T21:48:14.318Z,71.41
2019-01-05T21:51:01.561Z,71.02
2019-01-05T21:54:02.086Z,71.55
2019-01-05T21:56:49.322Z,71.76
2019-01-05T21:59:35.844Z,72.38
2019-01-05T22:02:27.433Z,72.12
2019-01-05T22:05:18.692Z,72.22
2019-01-05T22:08:07.005Z,72.21
2019-01-05T22:10:56.182Z,72.22
2019-01-05T22:13:43.308Z,72.93
2019-01-05T22:16:31.589Z,73.10
2019-01-05T22:19:17.627Z,73.34
2019-01-05T22:22:04.448Z,72.28
2019-01-05T22:25:04.939Z,72.94
2019-01-05T22:27:51.794Z,72.45
2019-01-05T22:30:40.077Z,72.44
2019-01-05T22:33:27.025Z,72.38
2019-01-05T22:36:14.489Z,72.51
2019-01-05T22:39:02.777Z,72.50
2019-01-05T22:41:56.866Z,72.66
2019-01-05T22:44:44.157Z,72.14
2019-01-05T22:47:44.705Z,72.70
2019-01-05T22:50:39.283Z,72.96
2019-01-05T22:53:25.134Z,73.18
2019-01-05T22:56:13.429Z,73.42
2019-01-05T22:59:10.572Z,73.36
2019-01-05T23:01:57.505Z,73.51
2019-01-05T23:04:51.861Z,73.40
2019-01-05T23:07:46.178Z,73.90
2019-01-05T23:10:33.083Z,73.75
2019-01-05T23:13:39.894Z,73.74
2019-01-05T23:16:43.323Z,73.62
2019-01-05T23:19:30.119Z,73.73
2019-01-05T23:22:18.391Z,74.38
2019-01-05T23:25:02.472Z,73.70
2019-01-05T23:27:57.276Z,73.12
2019-01-05T23:30:44.376Z,73.33
2019-01-05T23:33:44.781Z,73.37
2019-01-05T23:36:33.051Z,73.60
2019-01-05T23:39:21.346Z,73.90
2019-01-05T23:42:10.875Z,73.68
2019-01-05T23:45:05.261Z,73.97
2019-01-05T23:47:52.487Z,74.15
2019-01-05T23:50:33.190Z,73.53
2019-01-05T23:53:21.882Z,73.76
2019-01-05T23:56:08.829Z,73.12
2019-01-05T23:59:03.501Z,72.79
